createdAt,value
2018-06-24T00:02:10.477Z,12.33
2018-06-24T00:04:38.913Z,12.34
2018-06-24T00:07:07.513Z,12.34
2018-06-24T00:09:36.238Z,12.33
2018-06-24T00:12:04.698Z,12.37
2018-06-24T00:14:33.174Z,12.40
2018-06-24T00:17:01.809Z,12.44
2018-06-24T00:19:30.493Z,12.46
2018-06-24T00:21:58.965Z,12.46
2018-06-24T00:24:27.521Z,12.48
2018-06-24T00:26:55.937Z,12.48
2018-06-24T00:29:24.422Z,12.45
2018-06-24T00:31:53.133Z,12.43
2018-06-24T00:34:21.621Z,12.40
2018-06-24T00:36:50.307Z,12.38
2018-06-24T00:39:18.885Z,12.37
2018-06-24T00:41:47.334Z,12.37
2018-06-24T00:44:16.065Z,12.37
2018-06-24T00:46:44.657Z,12.38
2018-06-24T00:49:13.089Z,12.38
2018-06-24T00:51:41.537Z,12.16
2018-06-24T00:54:10.558Z,12.29
2018-06-24T00:56:39.102Z,12.28
2018-06-24T00:59:07.697Z,12.27
2018-06-24T01:01:36.450Z,12.25
2018-06-24T01:04:04.894Z,12.25
2018-06-24T01:06:33.350Z,12.22
2018-06-24T01:09:01.995Z,12.17
2018-06-24T01:11:30.449Z,12.13
2018-06-24T01:13:58.917Z,12.12
2018-06-24T01:16:27.939Z,12.09
2018-06-24T01:18:56.369Z,12.08
2018-06-24T01:21:24.902Z,12.03
2018-06-24T01:23:53.429Z,12.00
2018-06-24T01:26:22.196Z,11.96
2018-06-24T01:28:51.033Z,11.93
2018-06-24T01:31:19.927Z,11.87
2018-06-24T01:33:48.377Z,11.82
2018-06-24T01:36:16.817Z,11.77
2018-06-24T01:38:45.488Z,11.75
2018-06-24T01:41:14.006Z,11.74
2018-06-24T01:43:42.441Z,11.73
2018-06-24T01:46:11.740Z,11.71
2018-06-24T01:48:40.161Z,11.71
2018-06-24T01:51:08.624Z,11.68
2018-06-24T01:53:37.484Z,11.65
2018-06-24T01:56:05.922Z,11.60
2018-06-24T01:58:34.369Z,11.58
2018-06-24T02:01:03.506Z,11.52
2018-06-24T02:03:31.950Z,11.50
2018-06-24T02:06:00.429Z,11.50
2018-06-24T02:08:29.281Z,11.48
2018-06-24T02:10:57.721Z,11.47
2018-06-24T02:13:26.205Z,11.44
2018-06-24T02:15:54.854Z,11.43
2018-06-24T02:18:23.269Z,11.42
2018-06-24T02:20:51.715Z,11.40
2018-06-24T02:23:20.225Z,11.41
2018-06-24T02:25:48.649Z,11.39
2018-06-24T02:28:17.101Z,11.37
2018-06-24T02:30:45.647Z,11.37
2018-06-24T02:33:14.270Z,11.38
2018-06-24T02:35:42.703Z,11.36
2018-06-24T02:38:11.121Z,11.35
2018-06-24T02:40:39.533Z,11.39
2018-06-24T02:43:07.997Z,11.44
2018-06-24T02:45:36.629Z,11.52
2018-06-24T02:48:08.625Z,11.59
2018-06-24T02:50:37.105Z,11.62
2018-06-24T02:53:05.529Z,11.67
2018-06-24T02:55:34.433Z,11.70
2018-06-24T02:58:03.637Z,11.74
2018-06-24T03:00:32.058Z,11.79
2018-06-24T03:03:00.849Z,11.83
2018-06-24T03:05:29.785Z,11.87
2018-06-24T03:07:58.229Z,11.92
2018-06-24T03:10:26.649Z,11.91
2018-06-24T03:12:55.101Z,11.93
2018-06-24T03:15:23.528Z,11.92
2018-06-24T03:17:52.005Z,11.92
2018-06-24T03:20:20.509Z,11.92
2018-06-24T03:22:48.932Z,11.94
2018-06-24T03:25:17.398Z,11.99
2018-06-24T03:27:46.097Z,12.08
2018-06-24T03:30:14.519Z,12.15
2018-06-24T03:32:43.242Z,12.19
2018-06-24T03:35:12.257Z,12.26
2018-06-24T03:37:40.677Z,12.33
2018-06-24T03:40:09.097Z,12.38
2018-06-24T03:42:37.617Z,12.39
2018-06-24T03:45:06.497Z,12.42
2018-06-24T03:47:34.921Z,12.46
2018-06-24T03:50:04.389Z,12.51
2018-06-24T03:52:33.320Z,12.59
2018-06-24T03:55:01.745Z,12.66
2018-06-24T03:57:30.269Z,12.71
2018-06-24T03:59:58.689Z,12.78
2018-06-24T04:02:27.123Z,12.86
2018-06-24T04:04:56.702Z,12.90
2018-06-24T04:07:25.241Z,12.96
2018-06-24T04:09:53.749Z,13.01
2018-06-24T04:12:22.269Z,13.06
2018-06-24T04:14:50.696Z,13.10
2018-06-24T04:17:19.221Z,13.14
2018-06-24T04:19:48.141Z,13.22
2018-06-24T04:22:16.590Z,13.28
2018-06-24T04:24:45.106Z,13.36
2018-06-24T04:27:13.833Z,13.44
2018-06-24T04:29:42.251Z,13.52
2018-06-24T04:32:10.677Z,13.52
2018-06-24T04:34:39.691Z,13.57
2018-06-24T04:37:08.121Z,13.63
2018-06-24T04:39:37.429Z,13.72
2018-06-24T04:42:06.925Z,13.80
2018-06-24T04:44:35.366Z,13.86
2018-06-24T04:47:03.819Z,13.92
2018-06-24T04:49:32.729Z,13.98
2018-06-24T04:52:01.504Z,14.08
2018-06-24T04:54:29.939Z,14.17
2018-06-24T04:56:58.633Z,14.21
2018-06-24T04:59:27.056Z,14.26
2018-06-24T05:01:55.485Z,14.27
2018-06-24T05:04:24.537Z,14.24
2018-06-24T05:06:53.077Z,14.22
2018-06-24T05:09:21.501Z,14.20
2018-06-24T05:11:50.033Z,14.22
2018-06-24T05:14:18.457Z,14.24
2018-06-24T05:16:46.888Z,14.26
2018-06-24T05:19:15.630Z,14.30
2018-06-24T05:21:44.045Z,14.35
2018-06-24T05:24:12.456Z,14.43
2018-06-24T05:26:41.173Z,14.50
2018-06-24T05:29:09.853Z,14.59
2018-06-24T05:31:38.288Z,14.68
2018-06-24T05:34:06.917Z,14.80
2018-06-24T05:36:35.342Z,14.91
2018-06-24T05:39:06.202Z,14.98
2018-06-24T05:41:35.047Z,15.07
2018-06-24T05:44:03.774Z,15.18
2018-06-24T05:46:32.657Z,15.32
2018-06-24T05:49:01.307Z,15.46
2018-06-24T05:51:29.881Z,15.56
2018-06-24T05:53:58.497Z,15.64
2018-06-24T05:56:26.937Z,15.75
2018-06-24T05:58:55.381Z,15.82
2018-06-24T06:01:24.018Z,15.91
2018-06-24T06:03:52.665Z,16.02
2018-06-24T06:06:21.085Z,16.14
2018-06-24T06:08:50.190Z,16.25
2018-06-24T06:11:18.958Z,16.31
2018-06-24T06:13:48.086Z,16.33
2018-06-24T06:16:16.712Z,16.43
2018-06-24T06:18:45.614Z,16.53
2018-06-24T06:21:14.109Z,16.53
2018-06-24T06:23:43.313Z,16.51
2018-06-24T06:26:11.971Z,16.48
2018-06-24T06:28:40.402Z,16.51
2018-06-24T06:31:08.942Z,16.52
2018-06-24T06:33:37.745Z,16.53
2018-06-24T06:36:06.377Z,16.58
2018-06-24T06:38:35.210Z,16.66
2018-06-24T06:41:04.661Z,16.71
2018-06-24T06:43:33.093Z,16.74
2018-06-24T06:46:01.622Z,16.81
2018-06-24T06:48:30.542Z,16.87
2018-06-24T06:50:59.525Z,16.87
2018-06-24T06:53:28.054Z,16.92
2018-06-24T06:55:57.235Z,16.93
2018-06-24T06:58:25.973Z,16.93
2018-06-24T07:00:54.499Z,16.96
2018-06-24T07:03:23.215Z,17.01
2018-06-24T07:05:51.720Z,17.06
2018-06-24T07:08:20.225Z,17.12
2018-06-24T07:10:49.161Z,17.18
2018-06-24T07:13:17.620Z,17.25
2018-06-24T07:15:46.187Z,17.35
2018-06-24T07:18:14.842Z,17.45
2018-06-24T07:20:43.294Z,17.55
2018-06-24T07:23:12.265Z,17.62
2018-06-24T07:25:40.854Z,17.78
2018-06-24T07:28:09.457Z,17.99
2018-06-24T07:30:39.742Z,18.18
2018-06-24T07:33:08.744Z,18.36
2018-06-24T07:35:37.153Z,18.57
2018-06-24T07:38:06.085Z,18.80
2018-06-24T07:40:34.916Z,19.13
2018-06-24T07:43:03.661Z,19.53
2018-06-24T07:45:32.125Z,20.13
2018-06-24T07:48:00.877Z,20.95
2018-06-24T07:50:29.307Z,21.72
2018-06-24T07:52:57.862Z,22.43
2018-06-24T07:55:26.510Z,23.00
2018-06-24T07:57:55.918Z,23.42
2018-06-24T08:00:24.426Z,23.87
2018-06-24T08:02:53.497Z,24.30
2018-06-24T08:05:22.101Z,24.65
2018-06-24T08:07:50.520Z,24.82
2018-06-24T08:10:19.222Z,24.95
2018-06-24T08:12:47.750Z,25.14
2018-06-24T08:15:16.393Z,25.37
2018-06-24T08:17:45.621Z,25.52
2018-06-24T08:20:14.042Z,25.60
2018-06-24T08:22:42.807Z,25.66
2018-06-24T08:25:11.385Z,25.83
2018-06-24T08:27:41.626Z,25.84
2018-06-24T08:30:10.358Z,25.96
2018-06-24T08:32:39.274Z,26.04
2018-06-24T08:35:07.807Z,26.18
2018-06-24T08:37:36.961Z,26.27
2018-06-24T08:40:05.990Z,26.48
2018-06-24T08:42:34.925Z,26.88
2018-06-24T08:45:03.493Z,27.18
2018-06-24T08:47:32.370Z,27.25
2018-06-24T08:50:00.789Z,27.53
2018-06-24T08:52:29.289Z,27.67
2018-06-24T08:54:57.831Z,27.71
2018-06-24T08:57:26.249Z,27.05
2018-06-24T08:59:55.172Z,26.34
2018-06-24T09:02:24.093Z,25.69
2018-06-24T09:04:53.048Z,25.63
2018-06-24T09:07:21.466Z,25.76
2018-06-24T09:09:50.124Z,24.68
2018-06-24T09:12:18.945Z,25.16
2018-06-24T09:14:47.735Z,25.39
2018-06-24T09:17:16.390Z,25.06
2018-06-24T09:19:45.356Z,24.43
2018-06-24T09:22:14.146Z,23.81
2018-06-24T09:24:42.874Z,23.35
2018-06-24T09:27:12.837Z,23.74
2018-06-24T09:29:41.250Z,24.23
2018-06-24T09:32:10.162Z,24.11
2018-06-24T09:34:39.153Z,23.73
2018-06-24T09:37:07.677Z,23.63
2018-06-24T09:39:36.821Z,23.93
2018-06-24T09:42:05.426Z,23.76
2018-06-24T09:44:34.845Z,23.39
2018-06-24T09:47:03.425Z,23.18
2018-06-24T09:49:32.227Z,22.79
2018-06-24T09:52:00.663Z,22.43
2018-06-24T09:54:29.198Z,22.30
2018-06-24T09:56:57.729Z,22.10
2018-06-24T09:59:26.201Z,21.91
2018-06-24T10:01:55.006Z,21.77
2018-06-24T10:04:23.778Z,21.70
2018-06-24T10:06:52.203Z,21.78
2018-06-24T10:09:20.828Z,21.87
2018-06-24T10:11:49.361Z,22.01
2018-06-24T10:14:17.802Z,22.06
2018-06-24T10:16:47.019Z,21.89
2018-06-24T10:19:15.529Z,21.52
2018-06-24T10:21:43.978Z,21.25
2018-06-24T10:24:12.641Z,21.11
2018-06-24T10:26:41.362Z,20.94
2018-06-24T10:29:09.812Z,20.83
2018-06-24T10:31:38.673Z,20.73
2018-06-24T10:34:07.404Z,20.70
2018-06-24T10:36:35.888Z,20.69
2018-06-24T10:39:07.063Z,20.63
2018-06-24T10:41:36.798Z,20.55
2018-06-24T10:44:05.349Z,20.47
2018-06-24T10:46:33.941Z,20.35
2018-06-24T10:49:02.560Z,20.22
2018-06-24T10:51:31.109Z,20.10
2018-06-24T10:53:59.974Z,20.04
2018-06-24T10:56:28.442Z,20.15
2018-06-24T10:58:56.993Z,20.35
2018-06-24T11:01:25.730Z,20.52
2018-06-24T11:03:54.781Z,20.99
2018-06-24T11:06:23.661Z,21.65
2018-06-24T11:08:53.344Z,22.06
2018-06-24T11:11:21.821Z,22.16
2018-06-24T11:13:50.606Z,22.03
2018-06-24T11:16:19.508Z,21.87
2018-06-24T11:18:48.146Z,21.64
2018-06-24T11:21:17.001Z,21.61
2018-06-24T11:23:46.004Z,21.82
2018-06-24T11:26:15.390Z,22.29
2018-06-24T11:28:43.982Z,22.56
2018-06-24T11:31:12.700Z,22.56
2018-06-24T11:33:41.649Z,22.41
2018-06-24T11:36:16.526Z,22.18
2018-06-24T11:38:45.603Z,22.01
2018-06-24T11:41:15.029Z,21.64
2018-06-24T11:43:44.895Z,21.63
2018-06-24T11:46:16.698Z,21.49
2018-06-24T11:48:47.466Z,21.50
2018-06-24T11:51:17.103Z,21.78
2018-06-24T11:53:46.208Z,22.14
2018-06-24T11:56:15.222Z,22.50
2018-06-24T11:58:46.631Z,22.87
2018-06-24T12:01:15.980Z,23.46
2018-06-24T12:03:45.874Z,24.00
2018-06-24T12:06:14.836Z,24.45
2018-06-24T12:08:44.155Z,24.70
2018-06-24T12:11:13.089Z,25.12
2018-06-24T12:13:41.811Z,25.06
2018-06-24T12:16:10.591Z,24.38
2018-06-24T12:18:39.115Z,23.78
2018-06-24T12:21:07.802Z,23.72
2018-06-24T12:23:36.727Z,23.90
2018-06-24T12:26:05.253Z,23.74
2018-06-24T12:28:33.990Z,23.38
2018-06-24T12:31:03.034Z,23.10
2018-06-24T12:33:31.513Z,22.92
2018-06-24T12:35:59.969Z,22.81
2018-06-24T12:38:28.581Z,23.72
2018-06-24T12:40:57.602Z,24.58
2018-06-24T12:43:26.147Z,25.12
2018-06-24T12:45:54.603Z,26.17
2018-06-24T12:48:23.066Z,26.85
2018-06-24T12:50:51.560Z,27.62
2018-06-24T12:53:26.753Z,28.03
2018-06-24T12:55:55.289Z,27.69
2018-06-24T12:58:24.164Z,26.83
2018-06-24T13:00:53.155Z,26.01
2018-06-24T13:03:21.028Z,25.18
2018-06-24T13:05:49.789Z,24.63
2018-06-24T13:08:18.570Z,24.05
2018-06-24T13:10:47.186Z,23.67
2018-06-24T13:13:15.764Z,23.36
2018-06-24T13:15:44.202Z,23.23
2018-06-24T13:18:12.694Z,23.51
2018-06-24T13:20:41.581Z,23.69
2018-06-24T13:23:10.165Z,23.64
2018-06-24T13:25:38.618Z,23.55
2018-06-24T13:28:07.060Z,23.71
2018-06-24T13:30:36.542Z,23.95
2018-06-24T13:33:05.022Z,23.90
2018-06-24T13:35:33.469Z,23.62
2018-06-24T13:38:01.919Z,23.18
2018-06-24T13:40:30.379Z,22.83
2018-06-24T13:42:59.097Z,22.57
2018-06-24T13:45:27.525Z,22.34
2018-06-24T13:47:56.037Z,22.21
2018-06-24T13:50:24.561Z,22.21
2018-06-24T13:52:52.998Z,22.47
2018-06-24T13:55:21.833Z,23.58
2018-06-24T13:57:50.256Z,25.03
2018-06-24T14:00:18.857Z,25.60
2018-06-24T14:02:47.358Z,25.43
2018-06-24T14:05:16.027Z,25.13
2018-06-24T14:07:44.566Z,25.02
2018-06-24T14:10:13.317Z,25.45
2018-06-24T14:12:42.082Z,26.21
2018-06-24T14:15:10.529Z,27.30
2018-06-24T14:17:39.038Z,27.75
2018-06-24T14:20:07.693Z,27.42
2018-06-24T14:22:36.399Z,26.53
2018-06-24T14:25:05.642Z,25.71
2018-06-24T14:27:34.250Z,24.83
2018-06-24T14:30:02.737Z,24.26
2018-06-24T14:32:31.203Z,24.08
2018-06-24T14:34:59.944Z,24.32
2018-06-24T14:37:28.802Z,24.97
2018-06-24T14:39:57.581Z,25.46
2018-06-24T14:42:26.325Z,25.18
2018-06-24T14:44:54.781Z,24.85
2018-06-24T14:47:23.245Z,24.46
2018-06-24T14:49:51.786Z,24.04
2018-06-24T14:52:20.310Z,23.76
2018-06-24T14:54:48.773Z,23.60
2018-06-24T14:57:17.299Z,23.50
2018-06-24T14:59:45.849Z,23.42
2018-06-24T15:02:14.323Z,23.55
2018-06-24T15:04:43.080Z,24.69
2018-06-24T15:07:11.843Z,26.00
2018-06-24T15:09:40.359Z,26.82
2018-06-24T15:12:09.294Z,27.00
2018-06-24T15:14:37.747Z,26.69
2018-06-24T15:17:06.274Z,27.00
2018-06-24T15:19:35.345Z,27.89
2018-06-24T15:22:04.285Z,28.84
2018-06-24T15:24:32.734Z,29.66
2018-06-24T15:27:01.483Z,30.42
2018-06-24T15:29:29.959Z,30.50
2018-06-24T15:31:58.437Z,30.34
2018-06-24T15:34:27.146Z,30.89
2018-06-24T15:36:56.025Z,30.92
2018-06-24T15:39:24.510Z,30.10
2018-06-24T15:41:53.195Z,29.19
2018-06-24T15:44:22.199Z,28.28
2018-06-24T15:46:50.649Z,27.78
2018-06-24T15:49:19.297Z,27.81
2018-06-24T15:51:48.230Z,28.20
2018-06-24T15:54:23.045Z,28.35
2018-06-24T15:56:51.668Z,29.00
2018-06-24T15:59:20.098Z,29.56
2018-06-24T16:01:48.561Z,30.17
2018-06-24T16:04:17.196Z,30.13
2018-06-24T16:06:45.634Z,29.88
2018-06-24T16:09:14.308Z,29.73
2018-06-24T16:11:43.909Z,29.23
2018-06-24T16:14:12.649Z,28.83
2018-06-24T16:16:41.196Z,28.46
2018-06-24T16:19:09.798Z,29.02
2018-06-24T16:21:38.226Z,29.83
2018-06-24T16:24:06.757Z,30.32
2018-06-24T16:26:35.479Z,30.62
2018-06-24T16:29:04.213Z,30.73
2018-06-24T16:31:32.701Z,30.96
2018-06-24T16:34:01.658Z,30.91
2018-06-24T16:36:30.111Z,30.96
2018-06-24T16:38:58.658Z,30.78
2018-06-24T16:41:27.297Z,30.74
2018-06-24T16:43:55.741Z,30.81
2018-06-24T16:46:24.197Z,31.13
2018-06-24T16:48:52.908Z,31.21
2018-06-24T16:51:21.345Z,30.81
2018-06-24T16:53:50.134Z,30.51
2018-06-24T16:56:19.280Z,30.14
2018-06-24T16:58:47.728Z,29.39
2018-06-24T17:01:16.217Z,28.62
2018-06-24T17:03:45.575Z,27.74
2018-06-24T17:06:14.014Z,26.78
2018-06-24T17:08:42.477Z,26.10
2018-06-24T17:11:11.507Z,25.36
2018-06-24T17:13:40.141Z,24.68
2018-06-24T17:16:08.801Z,23.96
2018-06-24T17:18:37.645Z,23.40
2018-06-24T17:21:07.041Z,22.94
2018-06-24T17:23:36.810Z,22.62
2018-06-24T17:26:05.861Z,22.29
2018-06-24T17:28:34.921Z,21.96
2018-06-24T17:31:05.966Z,21.74
2018-06-24T17:33:34.984Z,21.53
2018-06-24T17:36:03.426Z,21.31
2018-06-24T17:38:31.917Z,21.11
2018-06-24T17:41:00.739Z,21.01
2018-06-24T17:43:29.175Z,20.93
2018-06-24T17:45:57.864Z,20.84
2018-06-24T17:48:26.641Z,20.78
2018-06-24T17:50:55.105Z,20.64
2018-06-24T17:53:23.745Z,20.52
2018-06-24T17:55:52.386Z,20.35
2018-06-24T17:58:20.814Z,20.18
2018-06-24T18:00:49.326Z,20.02
2018-06-24T18:03:18.036Z,19.93
2018-06-24T18:05:46.681Z,19.83
2018-06-24T18:08:15.139Z,19.77
2018-06-24T18:10:43.738Z,19.73
2018-06-24T18:13:12.251Z,19.65
2018-06-24T18:15:40.709Z,19.62
2018-06-24T18:18:09.783Z,19.56
2018-06-24T18:20:38.347Z,19.54
2018-06-24T18:23:07.495Z,19.50
2018-06-24T18:25:36.782Z,19.44
2018-06-24T18:28:05.302Z,19.37
2018-06-24T18:30:33.874Z,19.29
2018-06-24T18:33:02.696Z,19.21
2018-06-24T18:35:31.115Z,19.16
2018-06-24T18:37:59.590Z,19.06
2018-06-24T18:40:28.276Z,19.04
2018-06-24T18:42:56.817Z,18.98
2018-06-24T18:45:25.355Z,18.89
2018-06-24T18:47:54.313Z,18.85
2018-06-24T18:50:22.753Z,18.79
2018-06-24T18:52:51.217Z,18.75
2018-06-24T18:55:19.857Z,18.72
2018-06-24T18:57:48.301Z,18.68
2018-06-24T19:00:16.756Z,18.63
2018-06-24T19:02:45.464Z,18.56
2018-06-24T19:05:14.041Z,18.52
2018-06-24T19:07:42.588Z,18.41
2018-06-24T19:10:11.561Z,18.32
2018-06-24T19:12:40.309Z,18.24
2018-06-24T19:15:08.851Z,18.20
2018-06-24T19:17:37.379Z,18.13
2018-06-24T19:20:06.599Z,18.06
2018-06-24T19:22:35.072Z,18.02
2018-06-24T19:25:03.530Z,17.97
2018-06-24T19:27:32.043Z,17.91
2018-06-24T19:30:00.521Z,17.91
2018-06-24T19:32:29.205Z,17.88
2018-06-24T19:34:58.377Z,17.88
2018-06-24T19:37:26.934Z,17.81
2018-06-24T19:39:55.503Z,17.73
2018-06-24T19:42:24.002Z,17.65
2018-06-24T19:44:52.492Z,17.59
2018-06-24T19:47:21.222Z,17.52
2018-06-24T19:49:50.029Z,17.41
2018-06-24T19:52:18.511Z,17.37
2018-06-24T19:54:46.942Z,17.30
2018-06-24T19:57:15.801Z,17.27
2018-06-24T19:59:44.489Z,17.22
2018-06-24T20:02:13.000Z,17.16
2018-06-24T20:04:41.584Z,17.08
2018-06-24T20:07:10.119Z,17.00
2018-06-24T20:09:38.554Z,16.93
2018-06-24T20:12:07.301Z,16.83
2018-06-24T20:14:35.973Z,16.73
2018-06-24T20:17:06.066Z,16.63
2018-06-24T20:19:34.657Z,16.54
2018-06-24T20:22:03.526Z,12.41
2018-06-24T20:24:31.954Z,16.39
2018-06-24T20:27:00.626Z,16.32
2018-06-24T20:29:29.205Z,16.27
2018-06-24T20:31:57.633Z,16.18
2018-06-24T20:34:32.724Z,16.10
2018-06-24T20:37:01.321Z,16.04
2018-06-24T20:39:29.858Z,15.97
2018-06-24T20:41:58.398Z,15.74
2018-06-24T20:44:26.954Z,15.87
2018-06-24T20:46:55.645Z,15.87
2018-06-24T20:49:24.117Z,15.85
2018-06-24T20:51:52.977Z,15.81
2018-06-24T20:54:21.482Z,15.76
2018-06-24T20:56:49.945Z,15.71
2018-06-24T20:59:18.489Z,15.66
2018-06-24T21:01:47.127Z,15.62
2018-06-24T21:04:15.657Z,15.56
2018-06-24T21:06:44.165Z,15.47
2018-06-24T21:09:12.993Z,15.23
2018-06-24T21:11:41.667Z,15.39
2018-06-24T21:14:10.446Z,15.36
2018-06-24T21:16:38.884Z,15.33
2018-06-24T21:19:07.338Z,15.30
2018-06-24T21:21:36.846Z,15.26
2018-06-24T21:24:05.477Z,15.26
2018-06-24T21:26:33.966Z,15.22
2018-06-24T21:29:02.759Z,15.17
2018-06-24T21:31:31.170Z,15.15
2018-06-24T21:33:59.604Z,15.12
2018-06-24T21:36:28.698Z,15.09
2018-06-24T21:38:57.617Z,15.04
2018-06-24T21:41:26.110Z,14.96
2018-06-24T21:43:54.963Z,14.87
2018-06-24T21:46:23.393Z,14.79
2018-06-24T21:48:51.970Z,14.75
2018-06-24T21:51:20.721Z,14.73
2018-06-24T21:53:49.166Z,14.71
2018-06-24T21:56:17.638Z,14.69
2018-06-24T21:58:46.469Z,14.68
2018-06-24T22:01:14.942Z,14.65
2018-06-24T22:03:43.485Z,14.64
2018-06-24T22:06:12.111Z,14.61
2018-06-24T22:08:40.530Z,14.59
2018-06-24T22:11:08.998Z,14.55
2018-06-24T22:13:37.965Z,14.52
2018-06-24T22:16:06.463Z,14.45
2018-06-24T22:18:35.519Z,14.42
2018-06-24T22:21:04.109Z,14.41
2018-06-24T22:23:32.538Z,14.39
2018-06-24T22:26:01.220Z,14.33
2018-06-24T22:28:29.994Z,14.29
2018-06-24T22:30:58.433Z,14.29
2018-06-24T22:33:26.889Z,14.28
2018-06-24T22:35:55.534Z,14.26
2018-06-24T22:38:23.969Z,14.23
2018-06-24T22:40:52.501Z,14.22
2018-06-24T22:43:22.381Z,14.19
2018-06-24T22:45:51.677Z,14.14
2018-06-24T22:48:20.229Z,14.12
2018-06-24T22:50:48.857Z,14.10
2018-06-24T22:53:17.465Z,14.08
2018-06-24T22:55:45.980Z,14.03
2018-06-24T22:58:14.511Z,13.99
2018-06-24T23:00:43.074Z,13.95
2018-06-24T23:03:11.545Z,13.88
2018-06-24T23:05:40.158Z,13.83
2018-06-24T23:08:08.855Z,13.79
2018-06-24T23:10:37.305Z,13.74
2018-06-24T23:13:06.465Z,13.69
2018-06-24T23:15:34.994Z,13.65
2018-06-24T23:18:03.462Z,13.60
2018-06-24T23:20:32.157Z,13.57
2018-06-24T23:23:00.968Z,13.54
2018-06-24T23:25:29.597Z,13.51
2018-06-24T23:27:58.265Z,13.49
2018-06-24T23:30:27.014Z,13.47
2018-06-24T23:32:56.250Z,13.42
2018-06-24T23:35:24.889Z,13.42
2018-06-24T23:37:53.438Z,13.37
2018-06-24T23:40:21.950Z,13.33
2018-06-24T23:42:50.554Z,13.31
2018-06-24T23:45:19.483Z,13.29
2018-06-24T23:47:47.929Z,13.26
2018-06-24T23:50:16.518Z,13.24
2018-06-24T23:52:45.886Z,13.24
2018-06-24T23:55:14.379Z,13.26
2018-06-24T23:57:42.902Z,13.26
